Hurrem — TCA4613 — position and weather

sailwx.info

Track history (hours):
 
Tides and Currents Weather Stations Pressure Air Temp Water Temp Dewpoint Dewpoint Depression Visibility Wind Speed Wind Dir Waves Ship Positions

Hurrem

Last reported at 2018-May-15 14:18 UTC. Time now 2018-Jun-18 09:49 UTC.
Position N 36°50' E 030°36'.
Warning: this ship's position is 33 days out of date.

Length 19 m.

Type: Passenger vessel. MMSI: 271045159.

Date/timePositionNaut miles runAvg speedWind from/ knotsBaromVisibWave heightAir tempDewpointWater temp
2018-May-15 14:18N 36°50' E 030°36'0 0.0
2018-May-15 14:00N 36°50' E 030°36'0 0.0
2018-May-15 13:30N 36°50' E 030°36'0 0.0
2018-May-15 13:00N 36°50' E 030°36'0 0.0
2018-May-15 12:30N 36°50' E 030°36'0 0.0
2018-May-15 12:00N 36°50' E 030°36'0 0.0
2018-May-15 11:30N 36°50' E 030°36'0 0.0
2018-May-15 11:00N 36°50' E 030°36'0 0.0
2018-May-15 10:30N 36°50' E 030°36'0 0.0
2018-May-15 10:00N 36°50' E 030°36'0 0.0
2018-May-15 09:30N 36°50' E 030°36'0 0.0
2018-May-15 09:00N 36°50' E 030°36'0 0.0
2018-May-15 08:30N 36°50' E 030°36'0 0.0
2018-May-15 08:00N 36°50' E 030°36'0 0.0
2018-May-15 07:30N 36°50' E 030°36'0 0.0
2018-May-15 07:00N 36°50' E 030°36'0 0.0
2018-May-15 06:30N 36°50' E 030°36'0 0.0
2018-May-15 06:00N 36°50' E 030°36'0 0.0
2018-May-15 05:30N 36°50' E 030°36'0 0.0
2018-May-15 05:00N 36°50' E 030°36'0 0.0
2018-May-15 04:30N 36°50' E 030°36'0 0.0
2018-May-15 04:00N 36°50' E 030°36'0 0.0
2018-May-15 03:30N 36°50' E 030°36'0 0.0
2018-May-15 02:54N 36°50' E 030°36'0 0.0
2018-May-15 02:30N 36°50' E 030°36'0 0.0
2018-May-15 02:00N 36°50' E 030°36'0 0.0
2018-May-15 01:30N 36°50' E 030°36'0 0.0
2018-May-15 01:00N 36°50' E 030°36'0 0.0
2018-May-15 00:30N 36°50' E 030°36'0 0.0
2018-May-15 00:00N 36°50' E 030°36'0 0.0
2018-May-14 23:30N 36°50' E 030°36'0 0.0
2018-May-14 23:00N 36°50' E 030°36'0 0.0
2018-May-14 22:30N 36°50' E 030°36'0 0.0
2018-May-14 22:00N 36°50' E 030°36'0 0.0
2018-May-14 21:30N 36°50' E 030°36'0 0.0
2018-May-14 21:00N 36°50' E 030°36'0 0.0
2018-May-14 20:30N 36°50' E 030°36'0 0.0
2018-May-14 20:00N 36°50' E 030°36'0 0.0
2018-May-14 19:30N 36°50' E 030°36'0 0.0
2018-May-14 19:00N 36°50' E 030°36'0 0.0
2018-May-14 18:30N 36°50' E 030°36'0 0.0
2018-May-14 18:00N 36°50' E 030°36'0 0.0
2018-May-14 17:30N 36°50' E 030°36'0 0.0
2018-May-14 17:00N 36°50' E 030°36'0 0.0
2018-May-14 16:30N 36°50' E 030°36'0 0.0
2018-May-14 16:00N 36°50' E 030°36'0 0.0
2018-May-14 15:30N 36°50' E 030°36'0 0.0
2018-May-14 15:00N 36°50' E 030°36'0 0.0
2018-May-14 14:30N 36°50' E 030°36'0 0.0
2018-May-14 14:00N 36°50' E 030°36'0 0.0
2018-May-14 13:30N 36°50' E 030°36'0 0.0
2018-May-14 13:00N 36°50' E 030°36'0 0.8
2018-May-14 12:30N 36°50' E 030°37'2 2.8
2018-May-14 11:54N 36°48' E 030°35'0 0.0
2018-May-14 11:30N 36°48' E 030°35'0 0.0
2018-May-14 11:00N 36°48' E 030°35'0 0.0
2018-May-14 10:30N 36°48' E 030°35'0 0.0
2018-May-14 10:00N 36°48' E 030°35'0 0.0
2018-May-14 09:27N 36°48' E 030°35'1 2.5
2018-May-14 09:00N 36°47' E 030°35'5 9.6
2018-May-14 08:30N 36°50' E 030°39'3 5.8
2018-May-14 08:00N 36°53' E 030°41'5 9.1
2018-May-14 07:29N 36°50' E 030°36'0 0.1
2018-May-14 06:58N 36°50' E 030°36'0 0.0
2018-May-14 06:28N 36°50' E 030°36'0 0.0
2018-May-14 05:58N 36°50' E 030°36'0 0.0
2018-May-14 05:28N 36°50' E 030°36'0 0.0
2018-May-14 04:58N 36°50' E 030°36'0 0.0
2018-May-14 04:28N 36°50' E 030°36'0 0.0
2018-May-14 03:58N 36°50' E 030°36'0 0.0
2018-May-14 03:28N 36°50' E 030°36'0 0.0
2018-May-14 02:58N 36°50' E 030°36'0 0.0
2018-May-14 02:28N 36°50' E 030°36'0 0.0
2018-May-14 01:58N 36°50' E 030°36'0 0.0
2018-May-14 01:28N 36°50' E 030°36'0 0.0
2018-May-14 00:58N 36°50' E 030°36'0 0.0
2018-May-14 00:28N 36°50' E 030°36'0 0.0
2018-May-13 23:58N 36°50' E 030°36'0 0.0
2018-May-13 23:28N 36°50' E 030°36'0 0.0
2018-May-13 22:58N 36°50' E 030°36'0 0.0
2018-May-13 22:28N 36°50' E 030°36'0 0.0
2018-May-13 21:58N 36°50' E 030°36'0 0.0
2018-May-13 21:28N 36°50' E 030°36'0 0.0
2018-May-13 20:58N 36°50' E 030°36'0 0.0
2018-May-13 20:28N 36°50' E 030°36'0 0.0
2018-May-13 19:58N 36°50' E 030°36'0 0.0
2018-May-13 19:28N 36°50' E 030°36'0 0.0
2018-May-13 18:58N 36°50' E 030°36'0 0.0
2018-May-13 18:25N 36°50' E 030°36'0 0.0
2018-May-13 17:58N 36°50' E 030°36'0 0.0
2018-May-13 17:28N 36°50' E 030°36'0 0.0
2018-May-13 16:58N 36°50' E 030°36'0 0.0
2018-May-13 16:29N 36°50' E 030°36'0 0.0
2018-May-13 15:58N 36°50' E 030°36'0 0.0
2018-May-13 15:28N 36°50' E 030°36'0 0.0
2018-May-13 14:59N 36°50' E 030°36'0 0.0
2018-May-13 14:28N 36°50' E 030°36'0 0.0
2018-May-13 13:58N 36°50' E 030°36'0 0.0
2018-May-13 13:28N 36°50' E 030°36'0 0.3
2018-May-13 13:00N 36°50' E 030°36'2 4.5
2018-May-13 12:30N 36°48' E 030°36'0 0.0
2018-May-13 12:00N 36°48' E 030°36'0 0.0
2018-May-13 11:30N 36°48' E 030°36'0 0.0
2018-May-13 11:00N 36°48' E 030°36'0 0.0
2018-May-13 10:30N 36°48' E 030°36'0 0.0
2018-May-13 10:00N 36°48' E 030°36'1 1.4
2018-May-13 09:30N 36°48' E 030°37'5 9.9
2018-May-13 09:00N 36°51' E 030°42'1 1.7
2018-May-13 08:29N 36°52' E 030°43'2 3.3
2018-May-13 08:00N 36°51' E 030°41'4 7.4
2018-May-13 07:30N 36°50' E 030°36'0 0.1
2018-May-13 06:56N 36°50' E 030°36'0 0.0
2018-May-13 06:29N 36°50' E 030°36'0 0.0
2018-May-13 05:59N 36°50' E 030°36'0 0.0
2018-May-13 05:26N 36°50' E 030°36'0 0.0
2018-May-13 04:59N 36°50' E 030°36'0 0.0
2018-May-13 04:29N 36°50' E 030°36'0 0.0
2018-May-13 03:59N 36°50' E 030°36'0 0.0
2018-May-13 03:29N 36°50' E 030°36'0 0.0
2018-May-13 02:59N 36°50' E 030°36'0 0.0
2018-May-13 02:29N 36°50' E 030°36'0 0.0
2018-May-13 01:59N 36°50' E 030°36'0 0.0
2018-May-13 01:29N 36°50' E 030°36'0 0.0
2018-May-13 00:59N 36°50' E 030°36'0 0.0
2018-May-13 00:29N 36°50' E 030°36'0 0.0
2018-May-12 23:59N 36°50' E 030°36'0 0.0
2018-May-12 23:29N 36°50' E 030°36'0 0.0
2018-May-12 22:59N 36°50' E 030°36'0 0.0
2018-May-12 22:29N 36°50' E 030°36'0 0.0
2018-May-12 21:59N 36°50' E 030°36'0 0.0
2018-May-12 21:29N 36°50' E 030°36'0 0.0
2018-May-12 20:59N 36°50' E 030°36'0 0.0
2018-May-12 20:29N 36°50' E 030°36'0 0.0
2018-May-12 19:59N 36°50' E 030°36'0 0.0
2018-May-12 19:26N 36°50' E 030°36'0 0.0
2018-May-12 18:59N 36°50' E 030°36'0 0.0
2018-May-12 12:32N 36°50' E 030°36'0 0.1
2018-May-12 12:26N 36°50' E 030°36'0 0.0
2018-May-12 06:17N 36°50' E 030°36'0 0.0
2018-May-12 05:59N 36°50' E 030°36'0 0.0
2018-May-12 05:29N 36°50' E 030°36'0 0.0
2018-May-12 04:59N 36°50' E 030°36'0 0.0
2018-May-12 04:29N 36°50' E 030°36'0 0.0
2018-May-12 03:59N 36°50' E 030°36'0 0.0
2018-May-12 03:29N 36°50' E 030°36'0 0.0
2018-May-12 02:59N 36°50' E 030°36'0 0.0
2018-May-12 02:29N 36°50' E 030°36'0 0.0
2018-May-12 01:59N 36°50' E 030°36'0 0.0
2018-May-12 01:29N 36°50' E 030°36'0 0.0
2018-May-12 00:59N 36°50' E 030°36'0 0.0
2018-May-12 00:29N 36°50' E 030°36'0 0.0
2018-May-11 23:59N 36°50' E 030°36'0 0.0
2018-May-11 23:29N 36°50' E 030°36'0 0.0
2018-May-11 22:59N 36°50' E 030°36'0 0.0
2018-May-11 22:29N 36°50' E 030°36'0 0.0
2018-May-11 21:59N 36°50' E 030°36'0 0.0
2018-May-11 21:29N 36°50' E 030°36'0 0.0
2018-May-11 20:59N 36°50' E 030°36'0 0.0
2018-May-11 20:29N 36°50' E 030°36'0 0.0
2018-May-11 19:59N 36°50' E 030°36'0 0.0
2018-May-11 19:29N 36°50' E 030°36'0 0.0
2018-May-11 18:59N 36°50' E 030°36'0 0.0
2018-May-11 18:29N 36°50' E 030°36'0 0.0
2018-May-11 17:59N 36°50' E 030°36'0 0.0
2018-May-11 17:29N 36°50' E 030°36'0 0.0
2018-May-11 16:59N 36°50' E 030°36'0 0.0
2018-May-11 16:29N 36°50' E 030°36'0 0.0
2018-May-11 15:59N 36°50' E 030°36'0 0.0
2018-May-11 15:29N 36°50' E 030°36'0 0.0
2018-May-11 14:59N 36°50' E 030°36'0 0.0
2018-May-11 14:29N 36°50' E 030°36'0 0.0
2018-May-11 13:59N 36°50' E 030°36'0 0.0
2018-May-11 13:29N 36°50' E 030°36'0 0.0
2018-May-11 12:59N 36°50' E 030°36'0 0.0
2018-May-11 12:29N 36°50' E 030°36'0 0.0
2018-May-11 11:59N 36°50' E 030°36'0 0.0
2018-May-11 11:29N 36°50' E 030°36'0 0.0
2018-May-11 10:59N 36°50' E 030°36'0 0.0
2018-May-11 10:29N 36°50' E 030°36'0 0.0
2018-May-11 09:59N 36°50' E 030°36'0 0.0
2018-May-11 09:29N 36°50' E 030°36'0 0.0
2018-May-11 08:59N 36°50' E 030°36'0 0.0
2018-May-11 08:29N 36°50' E 030°36'0 0.0
2018-May-11 07:59N 36°50' E 030°36'0 0.0
2018-May-11 07:29N 36°50' E 030°36'0 0.0
2018-May-11 06:59N 36°50' E 030°36'0 0.0
2018-May-11 06:29N 36°50' E 030°36'0 0.0
2018-May-11 05:53N 36°50' E 030°36'0 0.0
2018-May-11 05:29N 36°50' E 030°36'0 0.0
2018-May-11 04:59N 36°50' E 030°36'0 0.0
2018-May-11 04:29N 36°50' E 030°36'0 0.0
2018-May-11 03:59N 36°50' E 030°36'0 0.0
2018-May-11 03:29N 36°50' E 030°36'0 0.0
2018-May-11 02:59N 36°50' E 030°36'0 0.0
2018-May-11 02:29N 36°50' E 030°36'0 0.0
2018-May-11 01:59N 36°50' E 030°36'0 0.0
2018-May-11 01:29N 36°50' E 030°36'0 0.0
2018-May-11 00:59N 36°50' E 030°36'0 0.0
2018-May-11 00:29N 36°50' E 030°36'0 0.0
2018-May-10 23:59N 36°50' E 030°36'0 0.0
2018-May-10 23:29N 36°50' E 030°36'0 0.0
2018-May-10 22:59N 36°50' E 030°36'0 0.0
2018-May-10 22:29N 36°50' E 030°36'0 0.0
2018-May-10 21:59N 36°50' E 030°36'0 0.0
2018-May-10 21:30N 36°50' E 030°36'0 0.0
2018-May-10 21:00N 36°50' E 030°36'0 0.0
2018-May-10 20:30N 36°50' E 030°36'0 0.0
2018-May-10 20:00N 36°50' E 030°36'0 0.0
2018-May-10 19:30N 36°50' E 030°36'0 0.0
2018-May-10 19:00N 36°50' E 030°36'0 0.0
2018-May-10 18:30N 36°50' E 030°36'0 0.0
2018-May-10 17:18N 36°50' E 030°36'0 0.0
2018-May-10 17:00N 36°50' E 030°36'0 0.0
2018-May-10 16:24N 36°50' E 030°36'0 0.0
2018-May-10 16:00N 36°50' E 030°36'0 0.0
2018-May-10 15:30N 36°50' E 030°36'0 0.0
2018-May-10 15:00N 36°50' E 030°36'0 0.0
2018-May-10 14:30N 36°50' E 030°36'0 0.0
2018-May-10 14:00N 36°50' E 030°36'0 0.0
2018-May-10 13:30N 36°50' E 030°36'0 0.0
2018-May-10 13:00N 36°50' E 030°36'0 0.0
2018-May-10 12:30N 36°50' E 030°36'0 0.0
2018-May-10 12:00N 36°50' E 030°36'0 0.0
2018-May-10 11:30N 36°50' E 030°36'0 0.0
2018-May-10 11:00N 36°50' E 030°36'0 0.0
2018-May-10 10:30N 36°50' E 030°36'0 0.0
2018-May-10 10:00N 36°50' E 030°36'0 0.0
2018-May-10 09:30N 36°50' E 030°36'0 0.0
2018-May-10 09:00N 36°50' E 030°36'0 0.0
2018-May-10 08:30N 36°50' E 030°36'0 0.0
2018-May-10 08:00N 36°50' E 030°36'0 0.0
2018-May-10 07:30N 36°50' E 030°36'0 0.0
2018-May-10 07:00N 36°50' E 030°36'0 0.0
2018-May-10 06:30N 36°50' E 030°36'0 0.0
2018-May-10 06:00N 36°50' E 030°36'0 0.0
2018-May-10 05:30N 36°50' E 030°36'0 0.0
2018-May-10 05:00N 36°50' E 030°36'0 0.0
2018-May-10 04:30N 36°50' E 030°36'0 0.0
2018-May-10 04:00N 36°50' E 030°36'0 0.0
2018-May-10 03:30N 36°50' E 030°36'0 0.0
2018-May-10 03:00N 36°50' E 030°36'0 0.0
2018-May-10 02:30N 36°50' E 030°36'0 0.0
2018-May-10 02:00N 36°50' E 030°36'0 0.0
2018-May-10 01:30N 36°50' E 030°36'0 0.0
2018-May-10 01:00N 36°50' E 030°36'0 0.0
2018-May-10 00:30N 36°50' E 030°36'0 0.0
2018-May-10 00:00N 36°50' E 030°36'0 0.0
2018-May-09 23:30N 36°50' E 030°36'0 0.0
2018-May-09 23:00N 36°50' E 030°36'0 0.0
2018-May-09 22:30N 36°50' E 030°36'0 0.0
2018-May-09 22:00N 36°50' E 030°36'0 0.0
2018-May-09 21:30N 36°50' E 030°36'0 0.0
2018-May-09 21:00N 36°50' E 030°36'0 0.0
2018-May-09 20:30N 36°50' E 030°36'0 0.0
2018-May-09 16:45N 36°50' E 030°36'0 0.0
2018-May-09 16:30N 36°50' E 030°36'0 0.0
2018-May-09 16:00N 36°50' E 030°36'0 0.0
2018-May-09 15:30N 36°50' E 030°36'0 0.0
2018-May-09 15:00N 36°50' E 030°36'0 0.0
2018-May-09 14:30N 36°50' E 030°36'0 0.0
2018-May-09 14:00N 36°50' E 030°36'0 0.0
2018-May-09 13:30N 36°50' E 030°36'0 0.0
2018-May-09 12:57N 36°50' E 030°36'0 0.0
2018-May-09 12:30N 36°50' E 030°36'0 0.0
2018-May-09 12:00N 36°50' E 030°36'0 0.0
2018-May-09 11:30N 36°50' E 030°36'0 0.0
2018-May-09 11:00N 36°50' E 030°36'0 0.0
2018-May-09 10:30N 36°50' E 030°36'0 0.0
2018-May-09 10:00N 36°50' E 030°36'0 0.0
2018-May-09 09:30N 36°50' E 030°36'2 4.6
2018-May-09 09:00N 36°50' E 030°39'510.1
2018-May-09 08:30N 36°50' E 030°45'1 1.7
2018-May-09 07:41N 36°51' E 030°47'2 9.1
2018-May-09 07:30N 36°51' E 030°45'510.0
2018-May-09 07:00N 36°50' E 030°39'2 3.8
2018-May-09 06:28N 36°50' E 030°36'0 0.0
2018-May-09 05:58N 36°50' E 030°36'0 0.0
2018-May-09 05:28N 36°50' E 030°36'0 0.0
2018-May-09 04:58N 36°50' E 030°36'0 0.0
2018-May-09 04:28N 36°50' E 030°36'0 0.0
2018-May-09 03:58N 36°50' E 030°36'0 0.0
2018-May-09 03:28N 36°50' E 030°36'0 0.0
2018-May-09 02:58N 36°50' E 030°36'0 0.0
2018-May-09 02:28N 36°50' E 030°36'0 0.0
2018-May-09 01:58N 36°50' E 030°36'0 0.0
2018-May-09 01:28N 36°50' E 030°36'0 0.0
2018-May-09 00:58N 36°50' E 030°36'0 0.0
2018-May-09 00:28N 36°50' E 030°36'0 0.0
2018-May-08 23:58N 36°50' E 030°36'0 0.0
2018-May-08 23:28N 36°50' E 030°36'0 0.0
2018-May-08 22:58N 36°50' E 030°36'0 0.0
2018-May-08 22:28N 36°50' E 030°36'0 0.0
2018-May-08 21:58N 36°50' E 030°36'0 0.0
2018-May-08 21:28N 36°50' E 030°36'0 0.0
2018-May-08 20:58N 36°50' E 030°36'0 0.0
2018-May-08 20:28N 36°50' E 030°36'0 0.0
2018-May-08 19:58N 36°50' E 030°36'0 0.0
2018-May-08 19:28N 36°50' E 030°36'0 0.0
2018-May-08 18:58N 36°50' E 030°36'0 0.0
2018-May-08 18:28N 36°50' E 030°36'0 0.0
2018-May-08 17:58N 36°50' E 030°36'0 0.0
2018-May-08 17:28N 36°50' E 030°36'0 0.0
2018-May-08 16:58N 36°50' E 030°36'0 0.0
2018-May-08 16:28N 36°50' E 030°36'0 0.0
2018-May-08 15:58N 36°50' E 030°36'0 0.0
2018-May-08 15:28N 36°50' E 030°36'0 0.0
2018-May-08 14:58N 36°50' E 030°36'0 0.0
2018-May-08 14:28N 36°50' E 030°36'0 0.0
2018-May-08 13:58N 36°50' E 030°36'0 0.0
2018-May-08 13:28N 36°50' E 030°36'0 0.0
2018-May-08 12:58N 36°50' E 030°36'0 1.0
2018-May-08 12:30N 36°50' E 030°37'2 3.9
2018-May-08 11:58N 36°48' E 030°35'0 0.0
2018-May-08 11:28N 36°48' E 030°35'0 0.7
2018-May-08 11:00N 36°48' E 030°35'1 1.9
2018-May-08 10:29N 36°47' E 030°34'0 0.0
2018-May-08 09:59N 36°47' E 030°34'0 0.0
2018-May-08 09:29N 36°47' E 030°34'3 5.8
2018-May-08 09:00N 36°48' E 030°38'610.9
2018-May-08 08:30N 36°50' E 030°44'2 3.9
2018-May-08 07:56N 36°51' E 030°47'410.0
2018-May-08 07:30N 36°51' E 030°41'4 7.8
2018-May-08 06:59N 36°50' E 030°36'0 0.0
2018-May-08 06:29N 36°50' E 030°36'0 0.0
2018-May-08 05:59N 36°50' E 030°36'0 0.0
2018-May-08 05:29N 36°50' E 030°36'0 0.0
2018-May-08 04:59N 36°50' E 030°36'0 0.0
2018-May-08 04:29N 36°50' E 030°36'0 0.0
2018-May-08 03:59N 36°50' E 030°36'0 0.0
2018-May-08 03:29N 36°50' E 030°36'0 0.0
2018-May-08 02:59N 36°50' E 030°36'0 0.0
2018-May-08 02:29N 36°50' E 030°36'0 0.0
2018-May-08 01:59N 36°50' E 030°36'0 0.0
2018-May-08 01:29N 36°50' E 030°36'0 0.0
2018-May-08 00:59N 36°50' E 030°36'0 0.0
2018-May-08 00:29N 36°50' E 030°36'0 0.0
2018-May-07 23:59N 36°50' E 030°36'0 0.0
2018-May-07 23:29N 36°50' E 030°36'0 0.0
2018-May-07 22:59N 36°50' E 030°36'0 0.0
2018-May-07 22:29N 36°50' E 030°36'0 0.0
2018-May-07 21:59N 36°50' E 030°36'0 0.0
2018-May-07 21:29N 36°50' E 030°36'0 0.0
2018-May-07 20:59N 36°50' E 030°36'0 0.0
2018-May-07 20:29N 36°50' E 030°36'0 0.0
2018-May-07 19:59N 36°50' E 030°36'0 0.0
2018-May-07 19:29N 36°50' E 030°36'0 0.0
2018-May-07 18:59N 36°50' E 030°36'0 0.0
2018-May-07 18:29N 36°50' E 030°36'0 0.0
2018-May-07 17:59N 36°50' E 030°36'0 0.0
2018-May-07 17:29N 36°50' E 030°36'0 0.0
2018-May-07 16:59N 36°50' E 030°36'0 0.0
2018-May-07 16:29N 36°50' E 030°36'0 0.0
2018-May-07 15:59N 36°50' E 030°36'0 0.0
2018-May-07 15:29N 36°50' E 030°36'0 0.0
2018-May-07 14:59N 36°50' E 030°36'0 0.0
2018-May-07 14:29N 36°50' E 030°36'0 0.0
2018-May-07 13:59N 36°50' E 030°36'0 0.0
2018-May-07 13:29N 36°50' E 030°36'0 0.0
2018-May-07 12:59N 36°50' E 030°36'0 0.0
2018-May-07 12:29N 36°50' E 030°36'0 0.0
2018-May-07 11:59N 36°50' E 030°36'0 0.0
2018-May-07 11:29N 36°50' E 030°36'0 0.0
2018-May-07 10:59N 36°50' E 030°36'0 0.0
2018-May-07 10:29N 36°50' E 030°36'0 0.0
2018-May-07 09:59N 36°50' E 030°36'0 0.0
2018-May-07 09:29N 36°50' E 030°36'0 0.0
2018-May-07 08:59N 36°50' E 030°36'0 0.0
2018-May-07 08:30N 36°50' E 030°36'0 0.0
2018-May-07 07:59N 36°50' E 030°36'0 0.0
2018-May-07 07:29N 36°50' E 030°36'0 0.0
2018-May-07 06:59N 36°50' E 030°36'0 0.0
2018-May-07 06:29N 36°50' E 030°36'0 0.0
2018-May-07 06:00N 36°50' E 030°36'0 0.0
2018-May-07 05:29N 36°50' E 030°36'0 0.0
2018-May-07 04:59N 36°50' E 030°36'0 0.0
2018-May-07 04:30N 36°50' E 030°36'0 0.0
2018-May-07 04:00N 36°50' E 030°36'0 0.0
2018-May-07 03:30N 36°50' E 030°36'0 0.0
2018-May-07 03:00N 36°50' E 030°36'0 0.0
2018-May-07 02:30N 36°50' E 030°36'0 0.0
2018-May-07 02:00N 36°50' E 030°36'0 0.0
2018-May-07 01:30N 36°50' E 030°36'0 0.0
2018-May-07 01:00N 36°50' E 030°36'0 0.0
2018-May-07 00:30N 36°50' E 030°36'0 0.0
2018-May-07 00:00N 36°50' E 030°36'0 0.0
2018-May-06 23:30N 36°50' E 030°36'0 0.0
2018-May-06 23:00N 36°50' E 030°36'0 0.0
2018-May-06 22:30N 36°50' E 030°36'0 0.0
2018-May-06 22:00N 36°50' E 030°36'0 0.0
2018-May-06 21:30N 36°50' E 030°36'0 0.0
2018-May-06 21:00N 36°50' E 030°36'0 0.0
2018-May-06 20:30N 36°50' E 030°36'0 0.0
2018-May-06 20:00N 36°50' E 030°36'0 0.0
2018-May-06 19:30N 36°50' E 030°36'0 0.0
2018-May-06 19:00N 36°50' E 030°36'0 0.0
2018-May-06 18:30N 36°50' E 030°36'0 0.0
2018-May-06 18:00N 36°50' E 030°36'0 0.0
2018-May-06 17:30N 36°50' E 030°36'0 0.0
2018-May-06 17:00N 36°50' E 030°36'0 0.0
2018-May-06 16:30N 36°50' E 030°36'0 0.0
2018-May-06 16:00N 36°50' E 030°36'0 0.0
2018-May-06 15:30N 36°50' E 030°36'0 0.0
2018-May-06 15:00N 36°50' E 030°36'0 0.0
2018-May-06 14:30N 36°50' E 030°36'0 0.0
2018-May-06 14:00N 36°50' E 030°36'0 0.0
2018-May-06 13:30N 36°50' E 030°36'0 0.0
2018-May-06 13:00N 36°50' E 030°36'0 0.0
2018-May-06 12:30N 36°50' E 030°36'0 0.0
2018-May-06 12:00N 36°50' E 030°36'0 0.0
2018-May-06 11:30N 36°50' E 030°36'0 0.0
2018-May-06 11:00N 36°50' E 030°36'0 0.0
2018-May-06 10:30N 36°50' E 030°36'0 0.0
2018-May-06 10:00N 36°50' E 030°36'0 0.0
2018-May-06 09:30N 36°50' E 030°36'0 0.0
2018-May-06 09:00N 36°50' E 030°36'0 0.0
2018-May-06 08:30N 36°50' E 030°36'0 0.0
2018-May-06 08:00N 36°50' E 030°36'0 0.0
2018-May-06 07:30N 36°50' E 030°36'0 0.0
2018-May-06 07:00N 36°50' E 030°36'0 0.0
2018-May-06 06:30N 36°50' E 030°36'0 0.0
2018-May-06 06:00N 36°50' E 030°36'0 0.0
2018-May-06 05:30N 36°50' E 030°36'0 0.0
2018-May-06 05:00N 36°50' E 030°36'0 0.0
2018-May-06 04:30N 36°50' E 030°36'0 0.0
2018-May-06 04:00N 36°50' E 030°36'0 0.0
2018-May-06 03:30N 36°50' E 030°36'0 0.0
2018-May-06 03:00N 36°50' E 030°36'0 0.0
2018-May-06 02:30N 36°50' E 030°36'0 0.0
2018-May-06 02:00N 36°50' E 030°36'0 0.0
2018-May-06 01:30N 36°50' E 030°36'0 0.0
2018-May-06 01:00N 36°50' E 030°36'0 0.0
2018-May-06 00:30N 36°50' E 030°36'0 0.0
2018-May-06 00:00N 36°50' E 030°36'0 0.0
2018-May-05 23:30N 36°50' E 030°36'0 0.0
2018-May-05 22:57N 36°50' E 030°36'0 0.0
2018-May-05 22:30N 36°50' E 030°36'0 0.0
2018-May-05 22:00N 36°50' E 030°36'0 0.0
2018-May-05 21:30N 36°50' E 030°36'0 0.0
2018-May-05 21:00N 36°50' E 030°36'0 0.0
2018-May-05 20:30N 36°50' E 030°36'0 0.0
2018-May-05 20:00N 36°50' E 030°36'0 0.0
2018-May-05 19:30N 36°50' E 030°36'0 0.0
2018-May-05 19:00N 36°50' E 030°36'0 0.0
2018-May-05 18:30N 36°50' E 030°36'0 0.0
2018-May-05 18:00N 36°50' E 030°36'0 0.0
2018-May-05 17:30N 36°50' E 030°36'0 0.0
2018-May-05 17:00N 36°50' E 030°36'0 0.0
2018-May-05 16:30N 36°50' E 030°36'0 0.0
2018-May-05 16:00N 36°50' E 030°36'0 0.0
2018-May-05 15:30N 36°50' E 030°36'0 0.0
2018-May-05 15:00N 36°50' E 030°36'2 3.7
2018-May-05 14:29N 36°48' E 030°35'  
Track history (hours):
 
Tides and Currents Weather Stations Pressure Air Temp Water Temp Dewpoint Dewpoint Depression Visibility Wind Speed Wind Dir Waves Ship Positions

Hurrem

Last reported at 2018-May-15 14:18 UTC. Time now 2018-Jun-18 09:49 UTC.
Position N 36°50' E 030°36'.
Warning: this ship's position is 33 days out of date.

Length 19 m.

Type: Passenger vessel. MMSI: 271045159.

Date/timePositionNaut miles runAvg speedWind from/ knotsBaromVisibWave heightAir tempDewpointWater temp
2018-May-15 14:18N 36°50' E 030°36'0 0.0
2018-May-15 14:00N 36°50' E 030°36'0 0.0
2018-May-15 13:30N 36°50' E 030°36'0 0.0
2018-May-15 13:00N 36°50' E 030°36'0 0.0
2018-May-15 12:30N 36°50' E 030°36'0 0.0
2018-May-15 12:00N 36°50' E 030°36'0 0.0
2018-May-15 11:30N 36°50' E 030°36'0 0.0
2018-May-15 11:00N 36°50' E 030°36'0 0.0
2018-May-15 10:30N 36°50' E 030°36'0 0.0
2018-May-15 10:00N 36°50' E 030°36'0 0.0
2018-May-15 09:30N 36°50' E 030°36'0 0.0
2018-May-15 09:00N 36°50' E 030°36'0 0.0
2018-May-15 08:30N 36°50' E 030°36'0 0.0
2018-May-15 08:00N 36°50' E 030°36'0 0.0
2018-May-15 07:30N 36°50' E 030°36'0 0.0
2018-May-15 07:00N 36°50' E 030°36'0 0.0
2018-May-15 06:30N 36°50' E 030°36'0 0.0
2018-May-15 06:00N 36°50' E 030°36'0 0.0
2018-May-15 05:30N 36°50' E 030°36'0 0.0
2018-May-15 05:00N 36°50' E 030°36'0 0.0
2018-May-15 04:30N 36°50' E 030°36'0 0.0
2018-May-15 04:00N 36°50' E 030°36'0 0.0
2018-May-15 03:30N 36°50' E 030°36'0 0.0
2018-May-15 02:54N 36°50' E 030°36'0 0.0
2018-May-15 02:30N 36°50' E 030°36'0 0.0
2018-May-15 02:00N 36°50' E 030°36'0 0.0
2018-May-15 01:30N 36°50' E 030°36'0 0.0
2018-May-15 01:00N 36°50' E 030°36'0 0.0
2018-May-15 00:30N 36°50' E 030°36'0 0.0
2018-May-15 00:00N 36°50' E 030°36'0 0.0
2018-May-14 23:30N 36°50' E 030°36'0 0.0
2018-May-14 23:00N 36°50' E 030°36'0 0.0
2018-May-14 22:30N 36°50' E 030°36'0 0.0
2018-May-14 22:00N 36°50' E 030°36'0 0.0
2018-May-14 21:30N 36°50' E 030°36'0 0.0
2018-May-14 21:00N 36°50' E 030°36'0 0.0
2018-May-14 20:30N 36°50' E 030°36'0 0.0
2018-May-14 20:00N 36°50' E 030°36'0 0.0
2018-May-14 19:30N 36°50' E 030°36'0 0.0
2018-May-14 19:00N 36°50' E 030°36'0 0.0
2018-May-14 18:30N 36°50' E 030°36'0 0.0
2018-May-14 18:00N 36°50' E 030°36'0 0.0
2018-May-14 17:30N 36°50' E 030°36'0 0.0
2018-May-14 17:00N 36°50' E 030°36'0 0.0
2018-May-14 16:30N 36°50' E 030°36'0 0.0
2018-May-14 16:00N 36°50' E 030°36'0 0.0
2018-May-14 15:30N 36°50' E 030°36'0 0.0
2018-May-14 15:00N 36°50' E 030°36'0 0.0
2018-May-14 14:30N 36°50' E 030°36'0 0.0
2018-May-14 14:00N 36°50' E 030°36'0 0.0
2018-May-14 13:30N 36°50' E 030°36'0 0.0
2018-May-14 13:00N 36°50' E 030°36'0 0.8
2018-May-14 12:30N 36°50' E 030°37'2 2.8
2018-May-14 11:54N 36°48' E 030°35'0 0.0
2018-May-14 11:30N 36°48' E 030°35'0 0.0
2018-May-14 11:00N 36°48' E 030°35'0 0.0
2018-May-14 10:30N 36°48' E 030°35'0 0.0
2018-May-14 10:00N 36°48' E 030°35'0 0.0
2018-May-14 09:27N 36°48' E 030°35'1 2.5
2018-May-14 09:00N 36°47' E 030°35'5 9.6
2018-May-14 08:30N 36°50' E 030°39'3 5.8
2018-May-14 08:00N 36°53' E 030°41'5 9.1
2018-May-14 07:29N 36°50' E 030°36'0 0.1
2018-May-14 06:58N 36°50' E 030°36'0 0.0
2018-May-14 06:28N 36°50' E 030°36'0 0.0
2018-May-14 05:58N 36°50' E 030°36'0 0.0
2018-May-14 05:28N 36°50' E 030°36'0 0.0
2018-May-14 04:58N 36°50' E 030°36'0 0.0
2018-May-14 04:28N 36°50' E 030°36'0 0.0
2018-May-14 03:58N 36°50' E 030°36'0 0.0
2018-May-14 03:28N 36°50' E 030°36'0 0.0
2018-May-14 02:58N 36°50' E 030°36'0 0.0
2018-May-14 02:28N 36°50' E 030°36'0 0.0
2018-May-14 01:58N 36°50' E 030°36'0 0.0
2018-May-14 01:28N 36°50' E 030°36'0 0.0
2018-May-14 00:58N 36°50' E 030°36'0 0.0
2018-May-14 00:28N 36°50' E 030°36'0 0.0
2018-May-13 23:58N 36°50' E 030°36'0 0.0
2018-May-13 23:28N 36°50' E 030°36'0 0.0
2018-May-13 22:58N 36°50' E 030°36'0 0.0
2018-May-13 22:28N 36°50' E 030°36'0 0.0
2018-May-13 21:58N 36°50' E 030°36'0 0.0
2018-May-13 21:28N 36°50' E 030°36'0 0.0
2018-May-13 20:58N 36°50' E 030°36'0 0.0
2018-May-13 20:28N 36°50' E 030°36'0 0.0
2018-May-13 19:58N 36°50' E 030°36'0 0.0
2018-May-13 19:28N 36°50' E 030°36'0 0.0
2018-May-13 18:58N 36°50' E 030°36'0 0.0
2018-May-13 18:25N 36°50' E 030°36'0 0.0
2018-May-13 17:58N 36°50' E 030°36'0 0.0
2018-May-13 17:28N 36°50' E 030°36'0 0.0
2018-May-13 16:58N 36°50' E 030°36'0 0.0
2018-May-13 16:29N 36°50' E 030°36'0 0.0
2018-May-13 15:58N 36°50' E 030°36'0 0.0
2018-May-13 15:28N 36°50' E 030°36'0 0.0
2018-May-13 14:59N 36°50' E 030°36'0 0.0
2018-May-13 14:28N 36°50' E 030°36'0 0.0
2018-May-13 13:58N 36°50' E 030°36'0 0.0
2018-May-13 13:28N 36°50' E 030°36'0 0.3
2018-May-13 13:00N 36°50' E 030°36'2 4.5
2018-May-13 12:30N 36°48' E 030°36'0 0.0
2018-May-13 12:00N 36°48' E 030°36'0 0.0
2018-May-13 11:30N 36°48' E 030°36'0 0.0
2018-May-13 11:00N 36°48' E 030°36'0 0.0
2018-May-13 10:30N 36°48' E 030°36'0 0.0
2018-May-13 10:00N 36°48' E 030°36'1 1.4
2018-May-13 09:30N 36°48' E 030°37'5 9.9
2018-May-13 09:00N 36°51' E 030°42'1 1.7
2018-May-13 08:29N 36°52' E 030°43'2 3.3
2018-May-13 08:00N 36°51' E 030°41'4 7.4
2018-May-13 07:30N 36°50' E 030°36'0 0.1
2018-May-13 06:56N 36°50' E 030°36'0 0.0
2018-May-13 06:29N 36°50' E 030°36'0 0.0
2018-May-13 05:59N 36°50' E 030°36'0 0.0
2018-May-13 05:26N 36°50' E 030°36'0 0.0
2018-May-13 04:59N 36°50' E 030°36'0 0.0
2018-May-13 04:29N 36°50' E 030°36'0 0.0
2018-May-13 03:59N 36°50' E 030°36'0 0.0
2018-May-13 03:29N 36°50' E 030°36'0 0.0
2018-May-13 02:59N 36°50' E 030°36'0 0.0
2018-May-13 02:29N 36°50' E 030°36'0 0.0
2018-May-13 01:59N 36°50' E 030°36'0 0.0
2018-May-13 01:29N 36°50' E 030°36'0 0.0
2018-May-13 00:59N 36°50' E 030°36'0 0.0
2018-May-13 00:29N 36°50' E 030°36'0 0.0
2018-May-12 23:59N 36°50' E 030°36'0 0.0
2018-May-12 23:29N 36°50' E 030°36'0 0.0
2018-May-12 22:59N 36°50' E 030°36'0 0.0
2018-May-12 22:29N 36°50' E 030°36'0 0.0
2018-May-12 21:59N 36°50' E 030°36'0 0.0
2018-May-12 21:29N 36°50' E 030°36'0 0.0
2018-May-12 20:59N 36°50' E 030°36'0 0.0
2018-May-12 20:29N 36°50' E 030°36'0 0.0
2018-May-12 19:59N 36°50' E 030°36'0 0.0
2018-May-12 19:26N 36°50' E 030°36'0 0.0
2018-May-12 18:59N 36°50' E 030°36'0 0.0
2018-May-12 12:32N 36°50' E 030°36'0 0.1
2018-May-12 12:26N 36°50' E 030°36'0 0.0
2018-May-12 06:17N 36°50' E 030°36'0 0.0
2018-May-12 05:59N 36°50' E 030°36'0 0.0
2018-May-12 05:29N 36°50' E 030°36'0 0.0
2018-May-12 04:59N 36°50' E 030°36'0 0.0
2018-May-12 04:29N 36°50' E 030°36'0 0.0
2018-May-12 03:59N 36°50' E 030°36'0 0.0
2018-May-12 03:29N 36°50' E 030°36'0 0.0
2018-May-12 02:59N 36°50' E 030°36'0 0.0
2018-May-12 02:29N 36°50' E 030°36'0 0.0
2018-May-12 01:59N 36°50' E 030°36'0 0.0
2018-May-12 01:29N 36°50' E 030°36'0 0.0
2018-May-12 00:59N 36°50' E 030°36'0 0.0
2018-May-12 00:29N 36°50' E 030°36'0 0.0
2018-May-11 23:59N 36°50' E 030°36'0 0.0
2018-May-11 23:29N 36°50' E 030°36'0 0.0
2018-May-11 22:59N 36°50' E 030°36'0 0.0
2018-May-11 22:29N 36°50' E 030°36'0 0.0
2018-May-11 21:59N 36°50' E 030°36'0 0.0
2018-May-11 21:29N 36°50' E 030°36'0 0.0
2018-May-11 20:59N 36°50' E 030°36'0 0.0
2018-May-11 20:29N 36°50' E 030°36'0 0.0
2018-May-11 19:59N 36°50' E 030°36'0 0.0
2018-May-11 19:29N 36°50' E 030°36'0 0.0
2018-May-11 18:59N 36°50' E 030°36'0 0.0
2018-May-11 18:29N 36°50' E 030°36'0 0.0
2018-May-11 17:59N 36°50' E 030°36'0 0.0
2018-May-11 17:29N 36°50' E 030°36'0 0.0
2018-May-11 16:59N 36°50' E 030°36'0 0.0
2018-May-11 16:29N 36°50' E 030°36'0 0.0
2018-May-11 15:59N 36°50' E 030°36'0 0.0
2018-May-11 15:29N 36°50' E 030°36'0 0.0
2018-May-11 14:59N 36°50' E 030°36'0 0.0
2018-May-11 14:29N 36°50' E 030°36'0 0.0
2018-May-11 13:59N 36°50' E 030°36'0 0.0
2018-May-11 13:29N 36°50' E 030°36'0 0.0
2018-May-11 12:59N 36°50' E 030°36'0 0.0
2018-May-11 12:29N 36°50' E 030°36'0 0.0
2018-May-11 11:59N 36°50' E 030°36'0 0.0
2018-May-11 11:29N 36°50' E 030°36'0 0.0
2018-May-11 10:59N 36°50' E 030°36'0 0.0
2018-May-11 10:29N 36°50' E 030°36'0 0.0
2018-May-11 09:59N 36°50' E 030°36'0 0.0
2018-May-11 09:29N 36°50' E 030°36'0 0.0
2018-May-11 08:59N 36°50' E 030°36'0 0.0
2018-May-11 08:29N 36°50' E 030°36'0 0.0
2018-May-11 07:59N 36°50' E 030°36'0 0.0
2018-May-11 07:29N 36°50' E 030°36'0 0.0
2018-May-11 06:59N 36°50' E 030°36'0 0.0
2018-May-11 06:29N 36°50' E 030°36'0 0.0
2018-May-11 05:53N 36°50' E 030°36'0 0.0
2018-May-11 05:29N 36°50' E 030°36'0 0.0
2018-May-11 04:59N 36°50' E 030°36'0 0.0
2018-May-11 04:29N 36°50' E 030°36'0 0.0
2018-May-11 03:59N 36°50' E 030°36'0 0.0
2018-May-11 03:29N 36°50' E 030°36'0 0.0
2018-May-11 02:59N 36°50' E 030°36'0 0.0
2018-May-11 02:29N 36°50' E 030°36'0 0.0
2018-May-11 01:59N 36°50' E 030°36'0 0.0
2018-May-11 01:29N 36°50' E 030°36'0 0.0
2018-May-11 00:59N 36°50' E 030°36'0 0.0
2018-May-11 00:29N 36°50' E 030°36'0 0.0
2018-May-10 23:59N 36°50' E 030°36'0 0.0
2018-May-10 23:29N 36°50' E 030°36'0 0.0
2018-May-10 22:59N 36°50' E 030°36'0 0.0
2018-May-10 22:29N 36°50' E 030°36'0 0.0
2018-May-10 21:59N 36°50' E 030°36'0 0.0
2018-May-10 21:30N 36°50' E 030°36'0 0.0
2018-May-10 21:00N 36°50' E 030°36'0 0.0
2018-May-10 20:30N 36°50' E 030°36'0 0.0
2018-May-10 20:00N 36°50' E 030°36'0 0.0
2018-May-10 19:30N 36°50' E 030°36'0 0.0
2018-May-10 19:00N 36°50' E 030°36'0 0.0
2018-May-10 18:30N 36°50' E 030°36'0 0.0
2018-May-10 17:18N 36°50' E 030°36'0 0.0
2018-May-10 17:00N 36°50' E 030°36'0 0.0
2018-May-10 16:24N 36°50' E 030°36'0 0.0
2018-May-10 16:00N 36°50' E 030°36'0 0.0
2018-May-10 15:30N 36°50' E 030°36'0 0.0
2018-May-10 15:00N 36°50' E 030°36'0 0.0
2018-May-10 14:30N 36°50' E 030°36'0 0.0
2018-May-10 14:00N 36°50' E 030°36'0 0.0
2018-May-10 13:30N 36°50' E 030°36'0 0.0
2018-May-10 13:00N 36°50' E 030°36'0 0.0
2018-May-10 12:30N 36°50' E 030°36'0 0.0
2018-May-10 12:00N 36°50' E 030°36'0 0.0
2018-May-10 11:30N 36°50' E 030°36'0 0.0
2018-May-10 11:00N 36°50' E 030°36'0 0.0
2018-May-10 10:30N 36°50' E 030°36'0 0.0
2018-May-10 10:00N 36°50' E 030°36'0 0.0
2018-May-10 09:30N 36°50' E 030°36'0 0.0
2018-May-10 09:00N 36°50' E 030°36'0 0.0
2018-May-10 08:30N 36°50' E 030°36'0 0.0
2018-May-10 08:00N 36°50' E 030°36'0 0.0
2018-May-10 07:30N 36°50' E 030°36'0 0.0
2018-May-10 07:00N 36°50' E 030°36'0 0.0
2018-May-10 06:30N 36°50' E 030°36'0 0.0
2018-May-10 06:00N 36°50' E 030°36'0 0.0
2018-May-10 05:30N 36°50' E 030°36'0 0.0
2018-May-10 05:00N 36°50' E 030°36'0 0.0
2018-May-10 04:30N 36°50' E 030°36'0 0.0
2018-May-10 04:00N 36°50' E 030°36'0 0.0
2018-May-10 03:30N 36°50' E 030°36'0 0.0
2018-May-10 03:00N 36°50' E 030°36'0 0.0
2018-May-10 02:30N 36°50' E 030°36'0 0.0
2018-May-10 02:00N 36°50' E 030°36'0 0.0
2018-May-10 01:30N 36°50' E 030°36'0 0.0
2018-May-10 01:00N 36°50' E 030°36'0 0.0
2018-May-10 00:30N 36°50' E 030°36'0 0.0
2018-May-10 00:00N 36°50' E 030°36'0 0.0
2018-May-09 23:30N 36°50' E 030°36'0 0.0
2018-May-09 23:00N 36°50' E 030°36'0 0.0
2018-May-09 22:30N 36°50' E 030°36'0 0.0
2018-May-09 22:00N 36°50' E 030°36'0 0.0
2018-May-09 21:30N 36°50' E 030°36'0 0.0
2018-May-09 21:00N 36°50' E 030°36'0 0.0
2018-May-09 20:30N 36°50' E 030°36'0 0.0
2018-May-09 16:45N 36°50' E 030°36'0 0.0
2018-May-09 16:30N 36°50' E 030°36'0 0.0
2018-May-09 16:00N 36°50' E 030°36'0 0.0
2018-May-09 15:30N 36°50' E 030°36'0 0.0
2018-May-09 15:00N 36°50' E 030°36'0 0.0
2018-May-09 14:30N 36°50' E 030°36'0 0.0
2018-May-09 14:00N 36°50' E 030°36'0 0.0
2018-May-09 13:30N 36°50' E 030°36'0 0.0
2018-May-09 12:57N 36°50' E 030°36'0 0.0
2018-May-09 12:30N 36°50' E 030°36'0 0.0
2018-May-09 12:00N 36°50' E 030°36'0 0.0
2018-May-09 11:30N 36°50' E 030°36'0 0.0
2018-May-09 11:00N 36°50' E 030°36'0 0.0
2018-May-09 10:30N 36°50' E 030°36'0 0.0
2018-May-09 10:00N 36°50' E 030°36'0 0.0
2018-May-09 09:30N 36°50' E 030°36'2 4.6
2018-May-09 09:00N 36°50' E 030°39'510.1
2018-May-09 08:30N 36°50' E 030°45'1 1.7
2018-May-09 07:41N 36°51' E 030°47'2 9.1
2018-May-09 07:30N 36°51' E 030°45'510.0
2018-May-09 07:00N 36°50' E 030°39'2 3.8
2018-May-09 06:28N 36°50' E 030°36'0 0.0
2018-May-09 05:58N 36°50' E 030°36'0 0.0
2018-May-09 05:28N 36°50' E 030°36'0 0.0
2018-May-09 04:58N 36°50' E 030°36'0 0.0
2018-May-09 04:28N 36°50' E 030°36'0 0.0
2018-May-09 03:58N 36°50' E 030°36'0 0.0
2018-May-09 03:28N 36°50' E 030°36'0 0.0
2018-May-09 02:58N 36°50' E 030°36'0 0.0
2018-May-09 02:28N 36°50' E 030°36'0 0.0
2018-May-09 01:58N 36°50' E 030°36'0 0.0
2018-May-09 01:28N 36°50' E 030°36'0 0.0
2018-May-09 00:58N 36°50' E 030°36'0 0.0
2018-May-09 00:28N 36°50' E 030°36'0 0.0
2018-May-08 23:58N 36°50' E 030°36'0 0.0
2018-May-08 23:28N 36°50' E 030°36'0 0.0
2018-May-08 22:58N 36°50' E 030°36'0 0.0
2018-May-08 22:28N 36°50' E 030°36'0 0.0
2018-May-08 21:58N 36°50' E 030°36'0 0.0
2018-May-08 21:28N 36°50' E 030°36'0 0.0
2018-May-08 20:58N 36°50' E 030°36'0 0.0
2018-May-08 20:28N 36°50' E 030°36'0 0.0
2018-May-08 19:58N 36°50' E 030°36'0 0.0
2018-May-08 19:28N 36°50' E 030°36'0 0.0
2018-May-08 18:58N 36°50' E 030°36'0 0.0
2018-May-08 18:28N 36°50' E 030°36'0 0.0
2018-May-08 17:58N 36°50' E 030°36'0 0.0
2018-May-08 17:28N 36°50' E 030°36'0 0.0
2018-May-08 16:58N 36°50' E 030°36'0 0.0
2018-May-08 16:28N 36°50' E 030°36'0 0.0
2018-May-08 15:58N 36°50' E 030°36'0 0.0
2018-May-08 15:28N 36°50' E 030°36'0 0.0
2018-May-08 14:58N 36°50' E 030°36'0 0.0
2018-May-08 14:28N 36°50' E 030°36'0 0.0
2018-May-08 13:58N 36°50' E 030°36'0 0.0
2018-May-08 13:28N 36°50' E 030°36'0 0.0
2018-May-08 12:58N 36°50' E 030°36'0 1.0
2018-May-08 12:30N 36°50' E 030°37'2 3.9
2018-May-08 11:58N 36°48' E 030°35'0 0.0
2018-May-08 11:28N 36°48' E 030°35'0 0.7
2018-May-08 11:00N 36°48' E 030°35'1 1.9
2018-May-08 10:29N 36°47' E 030°34'0 0.0
2018-May-08 09:59N 36°47' E 030°34'0 0.0
2018-May-08 09:29N 36°47' E 030°34'3 5.8
2018-May-08 09:00N 36°48' E 030°38'610.9
2018-May-08 08:30N 36°50' E 030°44'2 3.9
2018-May-08 07:56N 36°51' E 030°47'410.0
2018-May-08 07:30N 36°51' E 030°41'4 7.8
2018-May-08 06:59N 36°50' E 030°36'0 0.0
2018-May-08 06:29N 36°50' E 030°36'0 0.0
2018-May-08 05:59N 36°50' E 030°36'0 0.0
2018-May-08 05:29N 36°50' E 030°36'0 0.0
2018-May-08 04:59N 36°50' E 030°36'0 0.0
2018-May-08 04:29N 36°50' E 030°36'0 0.0
2018-May-08 03:59N 36°50' E 030°36'0 0.0
2018-May-08 03:29N 36°50' E 030°36'0 0.0
2018-May-08 02:59N 36°50' E 030°36'0 0.0
2018-May-08 02:29N 36°50' E 030°36'0 0.0
2018-May-08 01:59N 36°50' E 030°36'0 0.0
2018-May-08 01:29N 36°50' E 030°36'0 0.0
2018-May-08 00:59N 36°50' E 030°36'0 0.0
2018-May-08 00:29N 36°50' E 030°36'0 0.0
2018-May-07 23:59N 36°50' E 030°36'0 0.0
2018-May-07 23:29N 36°50' E 030°36'0 0.0
2018-May-07 22:59N 36°50' E 030°36'0 0.0
2018-May-07 22:29N 36°50' E 030°36'0 0.0
2018-May-07 21:59N 36°50' E 030°36'0 0.0
2018-May-07 21:29N 36°50' E 030°36'0 0.0
2018-May-07 20:59N 36°50' E 030°36'0 0.0
2018-May-07 20:29N 36°50' E 030°36'0 0.0
2018-May-07 19:59N 36°50' E 030°36'0 0.0
2018-May-07 19:29N 36°50' E 030°36'0 0.0
2018-May-07 18:59N 36°50' E 030°36'0 0.0
2018-May-07 18:29N 36°50' E 030°36'0 0.0
2018-May-07 17:59N 36°50' E 030°36'0 0.0
2018-May-07 17:29N 36°50' E 030°36'0 0.0
2018-May-07 16:59N 36°50' E 030°36'0 0.0
2018-May-07 16:29N 36°50' E 030°36'0 0.0
2018-May-07 15:59N 36°50' E 030°36'0 0.0
2018-May-07 15:29N 36°50' E 030°36'0 0.0
2018-May-07 14:59N 36°50' E 030°36'0 0.0
2018-May-07 14:29N 36°50' E 030°36'0 0.0
2018-May-07 13:59N 36°50' E 030°36'0 0.0
2018-May-07 13:29N 36°50' E 030°36'0 0.0
2018-May-07 12:59N 36°50' E 030°36'0 0.0
2018-May-07 12:29N 36°50' E 030°36'0 0.0
2018-May-07 11:59N 36°50' E 030°36'0 0.0
2018-May-07 11:29N 36°50' E 030°36'0 0.0
2018-May-07 10:59N 36°50' E 030°36'0 0.0
2018-May-07 10:29N 36°50' E 030°36'0 0.0
2018-May-07 09:59N 36°50' E 030°36'0 0.0
2018-May-07 09:29N 36°50' E 030°36'0 0.0
2018-May-07 08:59N 36°50' E 030°36'0 0.0
2018-May-07 08:30N 36°50' E 030°36'0 0.0
2018-May-07 07:59N 36°50' E 030°36'0 0.0
2018-May-07 07:29N 36°50' E 030°36'0 0.0
2018-May-07 06:59N 36°50' E 030°36'0 0.0
2018-May-07 06:29N 36°50' E 030°36'0 0.0
2018-May-07 06:00N 36°50' E 030°36'0 0.0
2018-May-07 05:29N 36°50' E 030°36'0 0.0
2018-May-07 04:59N 36°50' E 030°36'0 0.0
2018-May-07 04:30N 36°50' E 030°36'0 0.0
2018-May-07 04:00N 36°50' E 030°36'0 0.0
2018-May-07 03:30N 36°50' E 030°36'0 0.0
2018-May-07 03:00N 36°50' E 030°36'0 0.0
2018-May-07 02:30N 36°50' E 030°36'0 0.0
2018-May-07 02:00N 36°50' E 030°36'0 0.0
2018-May-07 01:30N 36°50' E 030°36'0 0.0
2018-May-07 01:00N 36°50' E 030°36'0 0.0
2018-May-07 00:30N 36°50' E 030°36'0 0.0
2018-May-07 00:00N 36°50' E 030°36'0 0.0
2018-May-06 23:30N 36°50' E 030°36'0 0.0
2018-May-06 23:00N 36°50' E 030°36'0 0.0
2018-May-06 22:30N 36°50' E 030°36'0 0.0
2018-May-06 22:00N 36°50' E 030°36'0 0.0
2018-May-06 21:30N 36°50' E 030°36'0 0.0
2018-May-06 21:00N 36°50' E 030°36'0 0.0
2018-May-06 20:30N 36°50' E 030°36'0 0.0
2018-May-06 20:00N 36°50' E 030°36'0 0.0
2018-May-06 19:30N 36°50' E 030°36'0 0.0
2018-May-06 19:00N 36°50' E 030°36'0 0.0
2018-May-06 18:30N 36°50' E 030°36'0 0.0
2018-May-06 18:00N 36°50' E 030°36'0 0.0
2018-May-06 17:30N 36°50' E 030°36'0 0.0
2018-May-06 17:00N 36°50' E 030°36'0 0.0
2018-May-06 16:30N 36°50' E 030°36'0 0.0
2018-May-06 16:00N 36°50' E 030°36'0 0.0
2018-May-06 15:30N 36°50' E 030°36'0 0.0
2018-May-06 15:00N 36°50' E 030°36'0 0.0
2018-May-06 14:30N 36°50' E 030°36'0 0.0
2018-May-06 14:00N 36°50' E 030°36'0 0.0
2018-May-06 13:30N 36°50' E 030°36'0 0.0
2018-May-06 13:00N 36°50' E 030°36'0 0.0
2018-May-06 12:30N 36°50' E 030°36'0 0.0
2018-May-06 12:00N 36°50' E 030°36'0 0.0
2018-May-06 11:30N 36°50' E 030°36'0 0.0
2018-May-06 11:00N 36°50' E 030°36'0 0.0
2018-May-06 10:30N 36°50' E 030°36'0 0.0
2018-May-06 10:00N 36°50' E 030°36'0 0.0
2018-May-06 09:30N 36°50' E 030°36'0 0.0
2018-May-06 09:00N 36°50' E 030°36'0 0.0
2018-May-06 08:30N 36°50' E 030°36'0 0.0
2018-May-06 08:00N 36°50' E 030°36'0 0.0
2018-May-06 07:30N 36°50' E 030°36'0 0.0
2018-May-06 07:00N 36°50' E 030°36'0 0.0
2018-May-06 06:30N 36°50' E 030°36'0 0.0
2018-May-06 06:00N 36°50' E 030°36'0 0.0
2018-May-06 05:30N 36°50' E 030°36'0 0.0
2018-May-06 05:00N 36°50' E 030°36'0 0.0
2018-May-06 04:30N 36°50' E 030°36'0 0.0
2018-May-06 04:00N 36°50' E 030°36'0 0.0
2018-May-06 03:30N 36°50' E 030°36'0 0.0
2018-May-06 03:00N 36°50' E 030°36'0 0.0
2018-May-06 02:30N 36°50' E 030°36'0 0.0
2018-May-06 02:00N 36°50' E 030°36'0 0.0
2018-May-06 01:30N 36°50' E 030°36'0 0.0
2018-May-06 01:00N 36°50' E 030°36'0 0.0
2018-May-06 00:30N 36°50' E 030°36'0 0.0
2018-May-06 00:00N 36°50' E 030°36'0 0.0
2018-May-05 23:30N 36°50' E 030°36'0 0.0
2018-May-05 22:57N 36°50' E 030°36'0 0.0
2018-May-05 22:30N 36°50' E 030°36'0 0.0
2018-May-05 22:00N 36°50' E 030°36'0 0.0
2018-May-05 21:30N 36°50' E 030°36'0 0.0
2018-May-05 21:00N 36°50' E 030°36'0 0.0
2018-May-05 20:30N 36°50' E 030°36'0 0.0
2018-May-05 20:00N 36°50' E 030°36'0 0.0
2018-May-05 19:30N 36°50' E 030°36'0 0.0
2018-May-05 19:00N 36°50' E 030°36'0 0.0
2018-May-05 18:30N 36°50' E 030°36'0 0.0
2018-May-05 18:00N 36°50' E 030°36'0 0.0
2018-May-05 17:30N 36°50' E 030°36'0 0.0
2018-May-05 17:00N 36°50' E 030°36'0 0.0
2018-May-05 16:30N 36°50' E 030°36'0 0.0
2018-May-05 16:00N 36°50' E 030°36'0 0.0
2018-May-05 15:30N 36°50' E 030°36'0 0.0
2018-May-05 15:00N 36°50' E 030°36'2 3.7
2018-May-05 14:29N 36°48' E 030°35'  

Dump ship's entire track history